sensor_id;sensor_type;location;lat;lon;timestamp;temperature;humidity
67131;HTU21D;54051;53.464;49.532;2023-05-29T00:01:21;20.25;70.56
67131;HTU21D;54051;53.464;49.532;2023-05-29T00:03:50;20.13;71.01
67131;HTU21D;54051;53.464;49.532;2023-05-29T00:06:16;20.07;71.46
67131;HTU21D;54051;53.464;49.532;2023-05-29T00:08:42;20.06;71.53
67131;HTU21D;54051;53.464;49.532;2023-05-29T00:11:08;20.02;71.69
67131;HTU21D;54051;53.464;49.532;2023-05-29T00:13:34;19.91;72.03
67131;HTU21D;54051;53.464;49.532;2023-05-29T00:16:00;19.86;72.41
67131;HTU21D;54051;53.464;49.532;2023-05-29T00:18:26;19.85;72.51
67131;HTU21D;54051;53.464;49.532;2023-05-29T00:20:52;19.76;72.95
67131;HTU21D;54051;53.464;49.532;2023-05-29T00:23:19;19.71;73.14
67131;HTU21D;54051;53.464;49.532;2023-05-29T00:25:45;19.69;73.20
67131;HTU21D;54051;53.464;49.532;2023-05-29T00:28:11;19.69;73.52
67131;HTU21D;54051;53.464;49.532;2023-05-29T00:30:41;19.63;73.50
67131;HTU21D;54051;53.464;49.532;2023-05-29T00:33:07;19.57;73.60
67131;HTU21D;54051;53.464;49.532;2023-05-29T00:35:34;19.60;73.54
67131;HTU21D;54051;53.464;49.532;2023-05-29T00:38:00;19.59;73.53
67131;HTU21D;54051;53.464;49.532;2023-05-29T00:40:26;19.57;73.60
67131;HTU21D;54051;53.464;49.532;2023-05-29T00:42:52;19.59;73.57
67131;HTU21D;54051;53.464;49.532;2023-05-29T00:45:18;19.61;73.58
67131;HTU21D;54051;53.464;49.532;2023-05-29T00:47:44;19.69;73.51
67131;HTU21D;54051;53.464;49.532;2023-05-29T00:50:11;19.73;73.50
67131;HTU21D;54051;53.464;49.532;2023-05-29T00:52:39;19.66;74.07
67131;HTU21D;54051;53.464;49.532;2023-05-29T00:55:06;19.56;74.64
67131;HTU21D;54051;53.464;49.532;2023-05-29T00:57:33;19.58;74.70
67131;HTU21D;54051;53.464;49.532;2023-05-29T00:59:59;19.57;74.92
67131;HTU21D;54051;53.464;49.532;2023-05-29T01:02:26;19.65;74.68
67131;HTU21D;54051;53.464;49.532;2023-05-29T01:04:54;19.59;74.81
67131;HTU21D;54051;53.464;49.532;2023-05-29T01:07:22;19.55;75.05
67131;HTU21D;54051;53.464;49.532;2023-05-29T01:09:48;19.68;74.81
67131;HTU21D;54051;53.464;49.532;2023-05-29T01:12:18;19.74;74.69
67131;HTU21D;54051;53.464;49.532;2023-05-29T01:20:08;19.96;73.78
67131;HTU21D;54051;53.464;49.532;2023-05-29T01:22:40;19.95;73.96
67131;HTU21D;54051;53.464;49.532;2023-05-29T01:25:12;20.01;74.06
67131;HTU21D;54051;53.464;49.532;2023-05-29T01:27:40;20.13;73.84
67131;HTU21D;54051;53.464;49.532;2023-05-29T01:30:07;20.30;73.24
67131;HTU21D;54051;53.464;49.532;2023-05-29T01:32:33;20.34;73.11
67131;HTU21D;54051;53.464;49.532;2023-05-29T01:35:00;20.44;72.28
67131;HTU21D;54051;53.464;49.532;2023-05-29T01:37:26;20.48;72.25
67131;HTU21D;54051;53.464;49.532;2023-05-29T01:39:53;20.62;71.80
67131;HTU21D;54051;53.464;49.532;2023-05-29T01:42:19;20.86;70.72
67131;HTU21D;54051;53.464;49.532;2023-05-29T01:44:45;21.00;70.17
67131;HTU21D;54051;53.464;49.532;2023-05-29T01:47:12;20.87;70.77
67131;HTU21D;54051;53.464;49.532;2023-05-29T01:49:38;20.92;70.51
67131;HTU21D;54051;53.464;49.532;2023-05-29T01:52:04;21.47;68.88
67131;HTU21D;54051;53.464;49.532;2023-05-29T01:54:31;23.20;62.15
67131;HTU21D;54051;53.464;49.532;2023-05-29T01:56:57;24.66;56.48
67131;HTU21D;54051;53.464;49.532;2023-05-29T01:59:23;23.91;58.50
67131;HTU21D;54051;53.464;49.532;2023-05-29T02:01:50;22.66;62.96
67131;HTU21D;54051;53.464;49.532;2023-05-29T02:04:16;21.78;66.15
67131;HTU21D;54051;53.464;49.532;2023-05-29T02:06:42;21.24;68.36
67131;HTU21D;54051;53.464;49.532;2023-05-29T02:09:08;20.98;69.90
67131;HTU21D;54051;53.464;49.532;2023-05-29T02:11:35;20.77;70.74
67131;HTU21D;54051;53.464;49.532;2023-05-29T02:14:01;20.70;71.13
67131;HTU21D;54051;53.464;49.532;2023-05-29T02:16:31;20.58;71.59
67131;HTU21D;54051;53.464;49.532;2023-05-29T02:19:00;20.50;71.84
67131;HTU21D;54051;53.464;49.532;2023-05-29T02:21:27;20.36;72.66
67131;HTU21D;54051;53.464;49.532;2023-05-29T02:23:53;20.28;72.75
67131;HTU21D;54051;53.464;49.532;2023-05-29T02:26:19;20.36;72.90
67131;HTU21D;54051;53.464;49.532;2023-05-29T02:28:45;20.53;71.86
67131;HTU21D;54051;53.464;49.532;2023-05-29T02:31:11;20.49;71.84
67131;HTU21D;54051;53.464;49.532;2023-05-29T02:33:37;20.53;71.77
67131;HTU21D;54051;53.464;49.532;2023-05-29T02:36:03;20.59;71.39
67131;HTU21D;54051;53.464;49.532;2023-05-29T02:38:29;20.46;71.59
67131;HTU21D;54051;53.464;49.532;2023-05-29T02:40:56;20.41;72.50
67131;HTU21D;54051;53.464;49.532;2023-05-29T02:43:22;20.46;72.41
67131;HTU21D;54051;53.464;49.532;2023-05-29T02:45:49;20.46;72.90
67131;HTU21D;54051;53.464;49.532;2023-05-29T02:48:15;20.42;73.06
67131;HTU21D;54051;53.464;49.532;2023-05-29T02:50:41;20.50;72.57
67131;HTU21D;54051;53.464;49.532;2023-05-29T02:53:07;20.61;71.93
67131;HTU21D;54051;53.464;49.532;2023-05-29T02:55:33;20.76;71.31
67131;HTU21D;54051;53.464;49.532;2023-05-29T02:58:01;20.92;70.50
67131;HTU21D;54051;53.464;49.532;2023-05-29T03:00:27;20.98;70.03
67131;HTU21D;54051;53.464;49.532;2023-05-29T03:02:54;21.01;70.28
67131;HTU21D;54051;53.464;49.532;2023-05-29T03:05:21;21.21;70.00
67131;HTU21D;54051;53.464;49.532;2023-05-29T03:07:47;21.54;69.03
67131;HTU21D;54051;53.464;49.532;2023-05-29T03:10:13;21.78;67.75
67131;HTU21D;54051;53.464;49.532;2023-05-29T03:12:43;23.80;61.07
67131;HTU21D;54051;53.464;49.532;2023-05-29T03:15:09;25.69;54.07
67131;HTU21D;54051;53.464;49.532;2023-05-29T03:17:35;25.84;53.33
67131;HTU21D;54051;53.464;49.532;2023-05-29T03:20:04;25.13;55.56
67131;HTU21D;54051;53.464;49.532;2023-05-29T03:22:34;25.19;55.42
67131;HTU21D;54051;53.464;49.532;2023-05-29T03:25:01;25.79;53.79
67131;HTU21D;54051;53.464;49.532;2023-05-29T03:27:27;27.81;47.82
67131;HTU21D;54051;53.464;49.532;2023-05-29T03:29:55;29.51;43.51
67131;HTU21D;54051;53.464;49.532;2023-05-29T03:32:21;31.55;38.23
67131;HTU21D;54051;53.464;49.532;2023-05-29T03:34:47;32.13;36.67
67131;HTU21D;54051;53.464;49.532;2023-05-29T03:37:13;32.59;36.05
67131;HTU21D;54051;53.464;49.532;2023-05-29T03:39:39;33.89;33.08
67131;HTU21D;54051;53.464;49.532;2023-05-29T03:42:05;34.40;31.81
67131;HTU21D;54051;53.464;49.532;2023-05-29T03:44:32;34.74;30.78
67131;HTU21D;54051;53.464;49.532;2023-05-29T03:46:58;35.43;29.77
67131;HTU21D;54051;53.464;49.532;2023-05-29T03:49:24;36.15;28.34
67131;HTU21D;54051;53.464;49.532;2023-05-29T03:51:50;36.89;26.83
67131;HTU21D;54051;53.464;49.532;2023-05-29T03:54:17;37.40;26.09
67131;HTU21D;54051;53.464;49.532;2023-05-29T03:56:43;37.38;26.24
67131;HTU21D;54051;53.464;49.532;2023-05-29T03:59:09;37.65;25.51
67131;HTU21D;54051;53.464;49.532;2023-05-29T04:01:35;38.21;24.58
67131;HTU21D;54051;53.464;49.532;2023-05-29T04:04:01;38.16;25.04
67131;HTU21D;54051;53.464;49.532;2023-05-29T04:06:27;38.02;25.46
67131;HTU21D;54051;53.464;49.532;2023-05-29T04:08:53;37.90;25.37
67131;HTU21D;54051;53.464;49.532;2023-05-29T04:11:20;37.36;26.23
67131;HTU21D;54051;53.464;49.532;2023-05-29T04:13:47;37.44;26.05
67131;HTU21D;54051;53.464;49.532;2023-05-29T04:16:14;38.65;24.15
67131;HTU21D;54051;53.464;49.532;2023-05-29T04:18:41;38.82;23.67
67131;HTU21D;54051;53.464;49.532;2023-05-29T04:21:07;38.29;24.71
67131;HTU21D;54051;53.464;49.532;2023-05-29T04:23:33;38.10;24.65
67131;HTU21D;54051;53.464;49.532;2023-05-29T04:25:59;38.53;24.07
67131;HTU21D;54051;53.464;49.532;2023-05-29T04:28:27;37.67;25.45
67131;HTU21D;54051;53.464;49.532;2023-05-29T04:30:53;38.22;24.41
67131;HTU21D;54051;53.464;49.532;2023-05-29T04:33:21;38.53;23.94
67131;HTU21D;54051;53.464;49.532;2023-05-29T04:35:49;38.02;24.68
67131;HTU21D;54051;53.464;49.532;2023-05-29T04:38:15;37.61;25.01
67131;HTU21D;54051;53.464;49.532;2023-05-29T04:40:42;38.65;23.60
67131;HTU21D;54051;53.464;49.532;2023-05-29T04:43:09;38.85;23.16
67131;HTU21D;54051;53.464;49.532;2023-05-29T04:45:35;38.98;22.97
67131;HTU21D;54051;53.464;49.532;2023-05-29T04:48:03;39.12;22.15
67131;HTU21D;54051;53.464;49.532;2023-05-29T04:50:29;39.44;22.18
67131;HTU21D;54051;53.464;49.532;2023-05-29T04:56:57;39.78;21.34
67131;HTU21D;54051;53.464;49.532;2023-05-29T04:59:24;40.39;20.56
67131;HTU21D;54051;53.464;49.532;2023-05-29T05:01:50;40.28;20.87
67131;HTU21D;54051;53.464;49.532;2023-05-29T05:04:16;40.45;20.11
67131;HTU21D;54051;53.464;49.532;2023-05-29T05:14:45;39.53;20.82
67131;HTU21D;54051;53.464;49.532;2023-05-29T05:17:11;39.20;20.99
67131;HTU21D;54051;53.464;49.532;2023-05-29T05:19:37;38.83;21.24
67131;HTU21D;54051;53.464;49.532;2023-05-29T05:22:03;39.28;20.66
67131;HTU21D;54051;53.464;49.532;2023-05-29T05:24:29;39.25;20.22
67131;HTU21D;54051;53.464;49.532;2023-05-29T05:26:57;40.02;19.15
67131;HTU21D;54051;53.464;49.532;2023-05-29T05:29:23;40.36;18.55
67131;HTU21D;54051;53.464;49.532;2023-05-29T05:31:49;40.53;17.35
67131;HTU21D;54051;53.464;49.532;2023-05-29T05:34:16;41.09;17.00
67131;HTU21D;54051;53.464;49.532;2023-05-29T05:36:42;41.67;16.32
67131;HTU21D;54051;53.464;49.532;2023-05-29T05:39:08;41.18;17.35
67131;HTU21D;54051;53.464;49.532;2023-05-29T05:41:34;40.66;17.95
67131;HTU21D;54051;53.464;49.532;2023-05-29T05:44:00;40.03;18.78
67131;HTU21D;54051;53.464;49.532;2023-05-29T05:46:26;40.14;17.96
67131;HTU21D;54051;53.464;49.532;2023-05-29T05:48:53;40.61;17.38
67131;HTU21D;54051;53.464;49.532;2023-05-29T05:51:23;40.11;17.28
67131;HTU21D;54051;53.464;49.532;2023-05-29T05:53:49;39.93;16.55
67131;HTU21D;54051;53.464;49.532;2023-05-29T05:56:15;40.47;16.01
67131;HTU21D;54051;53.464;49.532;2023-05-29T05:58:41;41.02;15.44
67131;HTU21D;54051;53.464;49.532;2023-05-29T06:01:08;41.30;12.98
67131;HTU21D;54051;53.464;49.532;2023-05-29T06:03:37;41.66;12.71
67131;HTU21D;54051;53.464;49.532;2023-05-29T06:06:03;42.15;11.85
67131;HTU21D;54051;53.464;49.532;2023-05-29T06:08:29;41.83;11.73
67131;HTU21D;54051;53.464;49.532;2023-05-29T06:10:56;40.98;14.36
67131;HTU21D;54051;53.464;49.532;2023-05-29T06:13:22;41.37;13.67
67131;HTU21D;54051;53.464;49.532;2023-05-29T06:15:48;37.33;18.40
67131;HTU21D;54051;53.464;49.532;2023-05-29T06:18:14;36.15;21.05
67131;HTU21D;54051;53.464;49.532;2023-05-29T06:20:40;38.90;17.08
67131;HTU21D;54051;53.464;49.532;2023-05-29T06:23:06;39.77;15.25
67131;HTU21D;54051;53.464;49.532;2023-05-29T06:25:32;40.35;14.94
67131;HTU21D;54051;53.464;49.532;2023-05-29T06:28:02;40.71;14.45
67131;HTU21D;54051;53.464;49.532;2023-05-29T06:30:30;40.55;14.68
67131;HTU21D;54051;53.464;49.532;2023-05-29T06:32:56;40.59;14.78
67131;HTU21D;54051;53.464;49.532;2023-05-29T06:35:22;40.55;13.84
67131;HTU21D;54051;53.464;49.532;2023-05-29T06:37:48;40.31;14.69
67131;HTU21D;54051;53.464;49.532;2023-05-29T06:40:14;40.06;15.15
67131;HTU21D;54051;53.464;49.532;2023-05-29T06:42:41;40.42;14.65
67131;HTU21D;54051;53.464;49.532;2023-05-29T06:45:10;40.15;15.87
67131;HTU21D;54051;53.464;49.532;2023-05-29T06:47:39;39.77;16.69
67131;HTU21D;54051;53.464;49.532;2023-05-29T06:50:06;39.80;16.25
67131;HTU21D;54051;53.464;49.532;2023-05-29T06:52:32;39.91;16.62
67131;HTU21D;54051;53.464;49.532;2023-05-29T06:54:58;40.06;14.57
67131;HTU21D;54051;53.464;49.532;2023-05-29T06:57:24;40.02;14.69
67131;HTU21D;54051;53.464;49.532;2023-05-29T06:59:50;39.70;14.44
67131;HTU21D;54051;53.464;49.532;2023-05-29T07:02:16;39.64;13.16
67131;HTU21D;54051;53.464;49.532;2023-05-29T07:04:42;39.55;13.47
67131;HTU21D;54051;53.464;49.532;2023-05-29T07:07:08;39.08;14.01
67131;HTU21D;54051;53.464;49.532;2023-05-29T07:09:34;39.53;12.02
67131;HTU21D;54051;53.464;49.532;2023-05-29T07:12:00;39.86;12.21
67131;HTU21D;54051;53.464;49.532;2023-05-29T07:14:26;39.59;12.45
67131;HTU21D;54051;53.464;49.532;2023-05-29T07:16:52;39.45;12.83
67131;HTU21D;54051;53.464;49.532;2023-05-29T07:19:21;38.84;13.36
67131;HTU21D;54051;53.464;49.532;2023-05-29T07:21:48;38.67;12.94
67131;HTU21D;54051;53.464;49.532;2023-05-29T07:24:14;38.92;13.08
67131;HTU21D;54051;53.464;49.532;2023-05-29T07:26:40;38.49;13.85
67131;HTU21D;54051;53.464;49.532;2023-05-29T07:29:06;38.74;13.22
67131;HTU21D;54051;53.464;49.532;2023-05-29T07:31:32;38.71;12.98
67131;HTU21D;54051;53.464;49.532;2023-05-29T07:33:59;38.94;13.13
67131;HTU21D;54051;53.464;49.532;2023-05-29T07:36:28;38.51;13.34
67131;HTU21D;54051;53.464;49.532;2023-05-29T07:38:55;38.32;12.31
67131;HTU21D;54051;53.464;49.532;2023-05-29T07:41:23;38.68;12.54
67131;HTU21D;54051;53.464;49.532;2023-05-29T07:43:49;39.17;13.55
67131;HTU21D;54051;53.464;49.532;2023-05-29T07:46:18;39.30;11.14
67131;HTU21D;54051;53.464;49.532;2023-05-29T07:48:44;38.04;11.78
67131;HTU21D;54051;53.464;49.532;2023-05-29T07:51:12;37.17;13.62
67131;HTU21D;54051;53.464;49.532;2023-05-29T07:53:38;39.19;10.17
67131;HTU21D;54051;53.464;49.532;2023-05-29T07:56:04;37.79;11.72
67131;HTU21D;54051;53.464;49.532;2023-05-29T07:58:30;37.07;12.24
67131;HTU21D;54051;53.464;49.532;2023-05-29T08:00:57;37.42;13.38
67131;HTU21D;54051;53.464;49.532;2023-05-29T08:03:24;35.85;14.03
67131;HTU21D;54051;53.464;49.532;2023-05-29T08:05:51;34.47;16.44
67131;HTU21D;54051;53.464;49.532;2023-05-29T08:08:17;33.23;18.16
67131;HTU21D;54051;53.464;49.532;2023-05-29T08:10:43;32.40;18.66
67131;HTU21D;54051;53.464;49.532;2023-05-29T08:13:09;31.59;20.35
67131;HTU21D;54051;53.464;49.532;2023-05-29T08:15:36;31.27;21.36
67131;HTU21D;54051;53.464;49.532;2023-05-29T08:18:02;30.84;21.29
67131;HTU21D;54051;53.464;49.532;2023-05-29T08:20:28;30.60;22.16
67131;HTU21D;54051;53.464;49.532;2023-05-29T08:22:55;30.18;22.20
67131;HTU21D;54051;53.464;49.532;2023-05-29T08:25:21;30.08;22.19
67131;HTU21D;54051;53.464;49.532;2023-05-29T08:27:47;29.74;22.67
67131;HTU21D;54051;53.464;49.532;2023-05-29T08:30:13;29.62;23.33
67131;HTU21D;54051;53.464;49.532;2023-05-29T08:32:39;29.61;22.62
67131;HTU21D;54051;53.464;49.532;2023-05-29T08:35:06;29.48;22.65
67131;HTU21D;54051;53.464;49.532;2023-05-29T08:37:32;29.62;22.77
67131;HTU21D;54051;53.464;49.532;2023-05-29T08:39:58;29.60;24.26
67131;HTU21D;54051;53.464;49.532;2023-05-29T08:42:26;29.27;24.49
67131;HTU21D;54051;53.464;49.532;2023-05-29T08:44:55;29.05;25.02
67131;HTU21D;54051;53.464;49.532;2023-05-29T08:47:23;28.77;25.70
67131;HTU21D;54051;53.464;49.532;2023-05-29T08:49:53;28.84;24.94
67131;HTU21D;54051;53.464;49.532;2023-05-29T08:52:20;28.68;24.43
67131;HTU21D;54051;53.464;49.532;2023-05-29T08:54:46;28.40;26.17
67131;HTU21D;54051;53.464;49.532;2023-05-29T08:57:12;28.03;24.77
67131;HTU21D;54051;53.464;49.532;2023-05-29T08:59:42;27.71;27.28
67131;HTU21D;54051;53.464;49.532;2023-05-29T09:02:09;27.56;25.65
67131;HTU21D;54051;53.464;49.532;2023-05-29T09:04:36;27.60;27.20
67131;HTU21D;54051;53.464;49.532;2023-05-29T09:07:02;27.58;26.55
67131;HTU21D;54051;53.464;49.532;2023-05-29T09:09:29;27.54;26.03
67131;HTU21D;54051;53.464;49.532;2023-05-29T09:11:57;27.39;26.99
67131;HTU21D;54051;53.464;49.532;2023-05-29T09:17:00;27.53;26.38
67131;HTU21D;54051;53.464;49.532;2023-05-29T09:19:26;27.46;26.47
67131;HTU21D;54051;53.464;49.532;2023-05-29T09:21:56;27.34;27.49
67131;HTU21D;54051;53.464;49.532;2023-05-29T09:24:27;27.41;26.49
67131;HTU21D;54051;53.464;49.532;2023-05-29T09:26:53;27.30;27.75
67131;HTU21D;54051;53.464;49.532;2023-05-29T09:29:19;27.13;27.40
67131;HTU21D;54051;53.464;49.532;2023-05-29T09:31:46;27.19;26.96
67131;HTU21D;54051;53.464;49.532;2023-05-29T09:34:13;27.32;26.89
67131;HTU21D;54051;53.464;49.532;2023-05-29T09:36:39;27.35;27.23
67131;HTU21D;54051;53.464;49.532;2023-05-29T09:39:05;27.27;27.53
67131;HTU21D;54051;53.464;49.532;2023-05-29T09:41:41;27.10;28.69
67131;HTU21D;54051;53.464;49.532;2023-05-29T09:44:07;27.17;27.11
67131;HTU21D;54051;53.464;49.532;2023-05-29T09:46:36;27.14;27.98
67131;HTU21D;54051;53.464;49.532;2023-05-29T09:49:02;27.10;27.53
67131;HTU21D;54051;53.464;49.532;2023-05-29T09:51:33;27.14;28.51
67131;HTU21D;54051;53.464;49.532;2023-05-29T09:53:59;27.09;27.06
67131;HTU21D;54051;53.464;49.532;2023-05-29T09:56:38;26.94;27.19
67131;HTU21D;54051;53.464;49.532;2023-05-29T09:59:04;26.95;28.29
67131;HTU21D;54051;53.464;49.532;2023-05-29T10:01:31;26.98;29.44
67131;HTU21D;54051;53.464;49.532;2023-05-29T10:03:58;27.01;29.65
67131;HTU21D;54051;53.464;49.532;2023-05-29T10:06:24;26.97;29.71
67131;HTU21D;54051;53.464;49.532;2023-05-29T10:08:50;26.92;29.00
67131;HTU21D;54051;53.464;49.532;2023-05-29T10:11:20;26.73;29.14
67131;HTU21D;54051;53.464;49.532;2023-05-29T10:13:51;26.77;30.38
67131;HTU21D;54051;53.464;49.532;2023-05-29T10:16:19;26.67;29.71
67131;HTU21D;54051;53.464;49.532;2023-05-29T10:18:47;26.58;30.39
67131;HTU21D;54051;53.464;49.532;2023-05-29T10:21:15;26.55;30.55
67131;HTU21D;54051;53.464;49.532;2023-05-29T10:23:44;26.68;29.74
67131;HTU21D;54051;53.464;49.532;2023-05-29T10:26:15;26.73;29.80
67131;HTU21D;54051;53.464;49.532;2023-05-29T10:28:44;26.75;29.96
67131;HTU21D;54051;53.464;49.532;2023-05-29T10:31:37;26.56;30.12
67131;HTU21D;54051;53.464;49.532;2023-05-29T10:36:29;26.73;29.77
67131;HTU21D;54051;53.464;49.532;2023-05-29T10:38:57;26.92;30.49
67131;HTU21D;54051;53.464;49.532;2023-05-29T10:43:54;27.09;29.68
67131;HTU21D;54051;53.464;49.532;2023-05-29T10:46:21;27.01;30.36
67131;HTU21D;54051;53.464;49.532;2023-05-29T10:48:50;26.87;31.64
67131;HTU21D;54051;53.464;49.532;2023-05-29T10:51:24;26.76;32.39
67131;HTU21D;54051;53.464;49.532;2023-05-29T10:53:50;26.65;31.20
67131;HTU21D;54051;53.464;49.532;2023-05-29T10:56:20;26.47;30.52
67131;HTU21D;54051;53.464;49.532;2023-05-29T10:58:53;26.46;31.67
67131;HTU21D;54051;53.464;49.532;2023-05-29T11:01:23;26.43;31.76
67131;HTU21D;54051;53.464;49.532;2023-05-29T11:03:50;26.50;33.25
67131;HTU21D;54051;53.464;49.532;2023-05-29T11:06:19;26.52;32.44
67131;HTU21D;54051;53.464;49.532;2023-05-29T11:08:55;26.46;34.01
67131;HTU21D;54051;53.464;49.532;2023-05-29T11:13:54;26.51;33.02
67131;HTU21D;54051;53.464;49.532;2023-05-29T11:18:51;26.47;33.46
67131;HTU21D;54051;53.464;49.532;2023-05-29T11:21:29;26.49;33.24
67131;HTU21D;54051;53.464;49.532;2023-05-29T11:23:57;26.40;34.37
67131;HTU21D;54051;53.464;49.532;2023-05-29T11:26:27;26.50;32.68
67131;HTU21D;54051;53.464;49.532;2023-05-29T11:28:56;26.60;33.00
67131;HTU21D;54051;53.464;49.532;2023-05-29T11:31:23;26.62;33.57
67131;HTU21D;54051;53.464;49.532;2023-05-29T11:33:50;26.58;34.34
67131;HTU21D;54051;53.464;49.532;2023-05-29T11:36:21;26.68;34.95
67131;HTU21D;54051;53.464;49.532;2023-05-29T11:38:47;26.72;34.05
67131;HTU21D;54051;53.464;49.532;2023-05-29T11:41:13;26.82;34.33
67131;HTU21D;54051;53.464;49.532;2023-05-29T11:43:39;26.87;33.46
67131;HTU21D;54051;53.464;49.532;2023-05-29T11:46:18;26.80;33.25
67131;HTU21D;54051;53.464;49.532;2023-05-29T11:48:45;26.77;33.71
67131;HTU21D;54051;53.464;49.532;2023-05-29T11:51:11;26.65;33.62
67131;HTU21D;54051;53.464;49.532;2023-05-29T11:53:40;26.64;34.15
67131;HTU21D;54051;53.464;49.532;2023-05-29T11:56:06;26.58;33.98
67131;HTU21D;54051;53.464;49.532;2023-05-29T11:58:33;26.60;34.49
67131;HTU21D;54051;53.464;49.532;2023-05-29T12:00:59;26.53;35.60
67131;HTU21D;54051;53.464;49.532;2023-05-29T12:03:25;26.43;34.65
67131;HTU21D;54051;53.464;49.532;2023-05-29T12:05:52;26.46;35.15
67131;HTU21D;54051;53.464;49.532;2023-05-29T12:08:24;26.36;35.73
67131;HTU21D;54051;53.464;49.532;2023-05-29T12:10:51;26.36;35.02
67131;HTU21D;54051;53.464;49.532;2023-05-29T12:13:21;26.31;35.72
67131;HTU21D;54051;53.464;49.532;2023-05-29T12:15:47;26.34;35.93
67131;HTU21D;54051;53.464;49.532;2023-05-29T12:18:14;26.43;34.86
67131;HTU21D;54051;53.464;49.532;2023-05-29T12:20:41;26.49;36.80
67131;HTU21D;54051;53.464;49.532;2023-05-29T12:23:07;26.45;36.61
67131;HTU21D;54051;53.464;49.532;2023-05-29T12:25:33;26.30;37.75
67131;HTU21D;54051;53.464;49.532;2023-05-29T12:28:01;26.20;35.73
67131;HTU21D;54051;53.464;49.532;2023-05-29T12:30:27;26.25;35.57
67131;HTU21D;54051;53.464;49.532;2023-05-29T12:32:53;26.26;36.57
67131;HTU21D;54051;53.464;49.532;2023-05-29T12:35:23;26.27;35.55
67131;HTU21D;54051;53.464;49.532;2023-05-29T12:42:52;26.49;36.27
67131;HTU21D;54051;53.464;49.532;2023-05-29T12:45:19;26.48;35.63
67131;HTU21D;54051;53.464;49.532;2023-05-29T12:47:45;26.36;35.08
67131;HTU21D;54051;53.464;49.532;2023-05-29T12:50:31;26.25;37.60
67131;HTU21D;54051;53.464;49.532;2023-05-29T12:55:24;25.99;36.07
67131;HTU21D;54051;53.464;49.532;2023-05-29T12:57:50;25.97;36.90
67131;HTU21D;54051;53.464;49.532;2023-05-29T13:00:17;25.82;36.50
67131;HTU21D;54051;53.464;49.532;2023-05-29T13:02:44;25.94;36.57
67131;HTU21D;54051;53.464;49.532;2023-05-29T13:05:11;26.11;37.12
67131;HTU21D;54051;53.464;49.532;2023-05-29T13:07:37;26.20;35.22
67131;HTU21D;54051;53.464;49.532;2023-05-29T13:10:03;26.16;35.23
67131;HTU21D;54051;53.464;49.532;2023-05-29T13:12:29;26.09;36.82
67131;HTU21D;54051;53.464;49.532;2023-05-29T13:14:55;26.13;36.57
67131;HTU21D;54051;53.464;49.532;2023-05-29T13:17:24;26.04;36.73
67131;HTU21D;54051;53.464;49.532;2023-05-29T13:19:50;26.16;37.29
67131;HTU21D;54051;53.464;49.532;2023-05-29T13:22:16;26.28;36.46
67131;HTU21D;54051;53.464;49.532;2023-05-29T13:24:43;26.55;36.11
67131;HTU21D;54051;53.464;49.532;2023-05-29T13:27:12;26.70;35.71
67131;HTU21D;54051;53.464;49.532;2023-05-29T13:29:42;26.77;35.34
67131;HTU21D;54051;53.464;49.532;2023-05-29T13:32:08;26.87;35.84
67131;HTU21D;54051;53.464;49.532;2023-05-29T13:34:34;26.86;35.98
67131;HTU21D;54051;53.464;49.532;2023-05-29T13:37:00;26.78;35.31
67131;HTU21D;54051;53.464;49.532;2023-05-29T13:39:28;26.62;35.21
67131;HTU21D;54051;53.464;49.532;2023-05-29T13:41:54;26.41;36.08
67131;HTU21D;54051;53.464;49.532;2023-05-29T13:44:20;26.39;37.23
67131;HTU21D;54051;53.464;49.532;2023-05-29T13:46:46;26.70;35.99
67131;HTU21D;54051;53.464;49.532;2023-05-29T13:49:12;26.82;36.17
67131;HTU21D;54051;53.464;49.532;2023-05-29T13:51:39;26.75;36.19
67131;HTU21D;54051;53.464;49.532;2023-05-29T13:54:05;26.49;38.40
67131;HTU21D;54051;53.464;49.532;2023-05-29T13:56:31;26.37;38.21
67131;HTU21D;54051;53.464;49.532;2023-05-29T13:58:57;26.33;37.46
67131;HTU21D;54051;53.464;49.532;2023-05-29T14:01:25;26.36;35.37
67131;HTU21D;54051;53.464;49.532;2023-05-29T14:03:51;26.48;34.93
67131;HTU21D;54051;53.464;49.532;2023-05-29T14:06:17;26.52;34.75
67131;HTU21D;54051;53.464;49.532;2023-05-29T14:08:43;26.46;36.43
67131;HTU21D;54051;53.464;49.532;2023-05-29T14:11:09;26.56;34.45
67131;HTU21D;54051;53.464;49.532;2023-05-29T14:13:36;26.75;29.46
67131;HTU21D;54051;53.464;49.532;2023-05-29T14:16:02;26.97;26.23
67131;HTU21D;54051;53.464;49.532;2023-05-29T14:18:28;26.93;27.68
67131;HTU21D;54051;53.464;49.532;2023-05-29T14:20:54;26.90;26.23
67131;HTU21D;54051;53.464;49.532;2023-05-29T14:23:20;26.94;25.68
67131;HTU21D;54051;53.464;49.532;2023-05-29T14:25:46;26.94;25.85
67131;HTU21D;54051;53.464;49.532;2023-05-29T14:28:12;26.96;25.72
67131;HTU21D;54051;53.464;49.532;2023-05-29T14:30:38;26.92;25.20
67131;HTU21D;54051;53.464;49.532;2023-05-29T14:33:05;26.91;24.48
67131;HTU21D;54051;53.464;49.532;2023-05-29T14:35:31;26.85;24.86
67131;HTU21D;54051;53.464;49.532;2023-05-29T14:37:57;26.82;24.49
67131;HTU21D;54051;53.464;49.532;2023-05-29T14:40:23;26.70;25.17
67131;HTU21D;54051;53.464;49.532;2023-05-29T14:42:49;26.63;25.31
67131;HTU21D;54051;53.464;49.532;2023-05-29T14:45:16;26.62;24.65
67131;HTU21D;54051;53.464;49.532;2023-05-29T14:47:42;26.49;25.00
67131;HTU21D;54051;53.464;49.532;2023-05-29T14:50:08;26.35;24.85
67131;HTU21D;54051;53.464;49.532;2023-05-29T14:52:34;26.15;25.14
67131;HTU21D;54051;53.464;49.532;2023-05-29T14:55:01;25.93;25.42
67131;HTU21D;54051;53.464;49.532;2023-05-29T14:57:27;25.86;26.07
67131;HTU21D;54051;53.464;49.532;2023-05-29T14:59:53;25.81;25.96
67131;HTU21D;54051;53.464;49.532;2023-05-29T15:02:20;25.76;25.70
67131;HTU21D;54051;53.464;49.532;2023-05-29T15:04:46;25.72;25.82
67131;HTU21D;54051;53.464;49.532;2023-05-29T15:07:12;25.68;26.01
67131;HTU21D;54051;53.464;49.532;2023-05-29T15:09:38;25.64;25.50
67131;HTU21D;54051;53.464;49.532;2023-05-29T15:12:04;25.54;25.13
67131;HTU21D;54051;53.464;49.532;2023-05-29T15:14:32;25.45;25.64
67131;HTU21D;54051;53.464;49.532;2023-05-29T15:16:58;25.43;25.65
67131;HTU21D;54051;53.464;49.532;2023-05-29T15:19:26;25.44;25.65
67131;HTU21D;54051;53.464;49.532;2023-05-29T15:21:52;25.36;25.45
67131;HTU21D;54051;53.464;49.532;2023-05-29T15:24:18;25.27;25.88
67131;HTU21D;54051;53.464;49.532;2023-05-29T15:26:44;25.18;25.76
67131;HTU21D;54051;53.464;49.532;2023-05-29T15:29:10;25.08;26.06
67131;HTU21D;54051;53.464;49.532;2023-05-29T15:31:36;25.07;25.87
67131;HTU21D;54051;53.464;49.532;2023-05-29T15:34:02;25.00;25.90
67131;HTU21D;54051;53.464;49.532;2023-05-29T15:36:28;24.92;26.49
67131;HTU21D;54051;53.464;49.532;2023-05-29T15:38:55;24.88;26.55